sensor_id;sensor_type;location;lat;lon;timestamp;pressure;altitude;pressure_sealevel;temperature;humidity
42705;BME280;28342;42.594;23.414;2023-05-15T00:00:32;94465.25;;;11.22;99.29
42705;BME280;28342;42.594;23.414;2023-05-15T00:02:57;94478.06;;;11.20;98.08
42705;BME280;28342;42.594;23.414;2023-05-15T00:05:23;94435.22;;;10.87;96.74
42705;BME280;28342;42.594;23.414;2023-05-15T00:07:48;94444.59;;;11.01;97.03
42705;BME280;28342;42.594;23.414;2023-05-15T00:10:14;94438.84;;;10.91;97.84
42705;BME280;28342;42.594;23.414;2023-05-15T00:12:39;94436.00;;;10.87;97.60
42705;BME280;28342;42.594;23.414;2023-05-15T00:15:05;94421.00;;;10.83;97.37
42705;BME280;28342;42.594;23.414;2023-05-15T00:17:31;94404.59;;;10.72;96.17
42705;BME280;28342;42.594;23.414;2023-05-15T00:19:56;94409.34;;;10.92;97.82
42705;BME280;28342;42.594;23.414;2023-05-15T00:22:24;94416.34;;;10.88;94.28
42705;BME280;28342;42.594;23.414;2023-05-15T00:24:50;94443.53;;;10.94;95.60
42705;BME280;28342;42.594;23.414;2023-05-15T00:27:15;94461.63;;;11.00;95.56
42705;BME280;28342;42.594;23.414;2023-05-15T00:29:40;94476.78;;;10.91;94.79
42705;BME280;28342;42.594;23.414;2023-05-15T00:32:06;94483.31;;;10.94;95.72
42705;BME280;28342;42.594;23.414;2023-05-15T00:34:31;94469.44;;;10.97;94.54
42705;BME280;28342;42.594;23.414;2023-05-15T00:36:58;94452.88;;;10.91;93.68
42705;BME280;28342;42.594;23.414;2023-05-15T00:39:23;94456.19;;;11.05;94.55
42705;BME280;28342;42.594;23.414;2023-05-15T00:41:50;94458.69;;;11.11;95.60
42705;BME280;28342;42.594;23.414;2023-05-15T00:44:16;94469.16;;;11.24;94.77
42705;BME280;28342;42.594;23.414;2023-05-15T00:46:45;94468.19;;;10.94;96.23
42705;BME280;28342;42.594;23.414;2023-05-15T00:49:11;94468.53;;;11.10;95.98
42705;BME280;28342;42.594;23.414;2023-05-15T00:51:40;94458.38;;;11.21;95.76
42705;BME280;28342;42.594;23.414;2023-05-15T00:54:07;94473.97;;;11.14;95.76
42705;BME280;28342;42.594;23.414;2023-05-15T00:56:32;94472.72;;;11.02;94.67
42705;BME280;28342;42.594;23.414;2023-05-15T00:58:58;94470.09;;;11.11;94.65
42705;BME280;28342;42.594;23.414;2023-05-15T01:01:25;94477.72;;;11.13;94.83
42705;BME280;28342;42.594;23.414;2023-05-15T01:03:50;94489.16;;;11.22;94.21
42705;BME280;28342;42.594;23.414;2023-05-15T01:06:16;94494.63;;;11.34;94.52
42705;BME280;28342;42.594;23.414;2023-05-15T01:08:43;94462.59;;;11.13;95.16
42705;BME280;28342;42.594;23.414;2023-05-15T01:11:11;94460.09;;;11.17;95.25
42705;BME280;28342;42.594;23.414;2023-05-15T01:13:37;94469.59;;;11.18;95.51
42705;BME280;28342;42.594;23.414;2023-05-15T01:16:03;94461.66;;;11.26;95.36
42705;BME280;28342;42.594;23.414;2023-05-15T01:18:28;94439.19;;;11.24;94.67
42705;BME280;28342;42.594;23.414;2023-05-15T01:29:22;94473.53;;;11.46;95.18
42705;BME280;28342;42.594;23.414;2023-05-15T01:32:01;94454.63;;;11.39;94.95
42705;BME280;28342;42.594;23.414;2023-05-15T01:34:42;94469.19;;;11.50;95.03
42705;BME280;28342;42.594;23.414;2023-05-15T01:37:09;94451.81;;;11.44;95.28
42705;BME280;28342;42.594;23.414;2023-05-15T01:39:38;94451.19;;;11.47;94.90
42705;BME280;28342;42.594;23.414;2023-05-15T01:42:09;94441.97;;;11.45;95.12
42705;BME280;28342;42.594;23.414;2023-05-15T01:44:37;94445.09;;;11.55;95.09
42705;BME280;28342;42.594;23.414;2023-05-15T01:47:19;94429.34;;;11.50;95.35
42705;BME280;28342;42.594;23.414;2023-05-15T01:49:46;94427.44;;;11.42;95.53
42705;BME280;28342;42.594;23.414;2023-05-15T01:52:19;94428.56;;;11.50;95.61
42705;BME280;28342;42.594;23.414;2023-05-15T01:54:48;94407.91;;;11.47;95.14
42705;BME280;28342;42.594;23.414;2023-05-15T01:57:14;94419.16;;;11.44;95.54
42705;BME280;28342;42.594;23.414;2023-05-15T01:59:40;94397.47;;;11.16;97.10
42705;BME280;28342;42.594;23.414;2023-05-15T02:02:06;94434.50;;;11.38;97.11
42705;BME280;28342;42.594;23.414;2023-05-15T02:04:36;94427.16;;;11.35;97.35
42705;BME280;28342;42.594;23.414;2023-05-15T02:07:03;94426.66;;;11.33;97.17
42705;BME280;28342;42.594;23.414;2023-05-15T02:09:30;94429.47;;;11.28;97.14
42705;BME280;28342;42.594;23.414;2023-05-15T02:11:56;94456.50;;;11.47;96.84
42705;BME280;28342;42.594;23.414;2023-05-15T02:14:23;94462.78;;;11.51;96.69
42705;BME280;28342;42.594;23.414;2023-05-15T02:16:49;94443.25;;;11.38;97.54
42705;BME280;28342;42.594;23.414;2023-05-15T02:19:15;94444.31;;;11.46;97.79
42705;BME280;28342;42.594;23.414;2023-05-15T02:21:40;94437.94;;;11.38;97.79
42705;BME280;28342;42.594;23.414;2023-05-15T02:24:06;94425.59;;;11.34;98.09
42705;BME280;28342;42.594;23.414;2023-05-15T02:26:59;94449.47;;;11.43;97.89
42705;BME280;28342;42.594;23.414;2023-05-15T02:32:16;94437.16;;;11.38;98.50
42705;BME280;28342;42.594;23.414;2023-05-15T02:34:51;94420.88;;;11.31;99.53
42705;BME280;28342;42.594;23.414;2023-05-15T02:37:19;94426.19;;;11.31;98.87
42705;BME280;28342;42.594;23.414;2023-05-15T02:39:49;94425.28;;;11.27;99.02
42705;BME280;28342;42.594;23.414;2023-05-15T02:42:18;94420.13;;;11.22;100.00
42705;BME280;28342;42.594;23.414;2023-05-15T02:44:45;94413.56;;;11.19;100.00
42705;BME280;28342;42.594;23.414;2023-05-15T02:47:11;94421.22;;;11.21;100.00
42705;BME280;28342;42.594;23.414;2023-05-15T02:49:38;94421.22;;;11.21;100.00
42705;BME280;28342;42.594;23.414;2023-05-15T02:52:04;94411.69;;;11.20;100.00
42705;BME280;28342;42.594;23.414;2023-05-15T02:54:29;94423.06;;;11.29;100.00
42705;BME280;28342;42.594;23.414;2023-05-15T02:56:55;94429.19;;;11.21;100.00
42705;BME280;28342;42.594;23.414;2023-05-15T02:59:21;94421.81;;;11.18;100.00
42705;BME280;28342;42.594;23.414;2023-05-15T03:01:47;94406.53;;;11.15;100.00
42705;BME280;28342;42.594;23.414;2023-05-15T03:04:13;94414.34;;;11.20;100.00
42705;BME280;28342;42.594;23.414;2023-05-15T03:06:39;94417.94;;;11.24;100.00
42705;BME280;28342;42.594;23.414;2023-05-15T03:09:05;94416.84;;;11.25;99.75
42705;BME280;28342;42.594;23.414;2023-05-15T03:11:30;94415.13;;;11.29;100.00
42705;BME280;28342;42.594;23.414;2023-05-15T03:13:56;94424.00;;;11.33;99.50
42705;BME280;28342;42.594;23.414;2023-05-15T03:16:24;94413.09;;;11.26;99.27
42705;BME280;28342;42.594;23.414;2023-05-15T03:18:49;94424.00;;;11.33;99.18
42705;BME280;28342;42.594;23.414;2023-05-15T03:21:15;94430.91;;;11.34;98.81
42705;BME280;28342;42.594;23.414;2023-05-15T03:23:41;94447.13;;;11.41;98.09
42705;BME280;28342;42.594;23.414;2023-05-15T03:26:07;94413.38;;;11.33;97.99
42705;BME280;28342;42.594;23.414;2023-05-15T03:28:32;94425.75;;;11.37;98.38
42705;BME280;28342;42.594;23.414;2023-05-15T03:30:57;94429.50;;;11.36;98.42
42705;BME280;28342;42.594;23.414;2023-05-15T03:33:23;94430.13;;;11.51;97.83
42705;BME280;28342;42.594;23.414;2023-05-15T03:35:49;94432.44;;;11.44;98.09
42705;BME280;28342;42.594;23.414;2023-05-15T03:38:16;94429.94;;;11.47;98.40
42705;BME280;28342;42.594;23.414;2023-05-15T03:40:41;94425.41;;;11.48;98.70
42705;BME280;28342;42.594;23.414;2023-05-15T03:43:07;94418.72;;;11.50;98.78
42705;BME280;28342;42.594;23.414;2023-05-15T03:45:32;94426.19;;;11.48;99.35
42705;BME280;28342;42.594;23.414;2023-05-15T03:47:59;94427.91;;;11.53;99.29
42705;BME280;28342;42.594;23.414;2023-05-15T03:50:24;94424.63;;;11.47;99.78
42705;BME280;28342;42.594;23.414;2023-05-15T03:52:50;94396.53;;;11.29;99.12
42705;BME280;28342;42.594;23.414;2023-05-15T03:55:15;94425.72;;;11.46;97.72
42705;BME280;28342;42.594;23.414;2023-05-15T03:57:41;94416.69;;;11.38;97.81
42705;BME280;28342;42.594;23.414;2023-05-15T04:00:07;94412.78;;;11.36;97.73
42705;BME280;28342;42.594;23.414;2023-05-15T04:02:35;94432.13;;;11.28;98.50
42705;BME280;28342;42.594;23.414;2023-05-15T04:05:03;94428.56;;;11.24;100.00
42705;BME280;28342;42.594;23.414;2023-05-15T04:07:29;94431.50;;;11.31;99.98
42705;BME280;28342;42.594;23.414;2023-05-15T04:09:54;94431.38;;;11.36;100.00
42705;BME280;28342;42.594;23.414;2023-05-15T04:12:19;94433.09;;;11.41;99.28
42705;BME280;28342;42.594;23.414;2023-05-15T04:14:46;94419.94;;;11.44;99.62
42705;BME280;28342;42.594;23.414;2023-05-15T04:17:11;94423.25;;;11.41;99.62
42705;BME280;28342;42.594;23.414;2023-05-15T04:19:37;94421.81;;;11.18;99.11
42705;BME280;28342;42.594;23.414;2023-05-15T04:22:04;94437.16;;;11.21;98.53
42705;BME280;28342;42.594;23.414;2023-05-15T04:24:30;94452.75;;;11.31;97.84
42705;BME280;28342;42.594;23.414;2023-05-15T04:26:56;94437.63;;;11.23;98.24
42705;BME280;28342;42.594;23.414;2023-05-15T04:29:21;94426.84;;;11.28;97.86
42705;BME280;28342;42.594;23.414;2023-05-15T04:31:46;94446.81;;;11.17;99.26
42705;BME280;28342;42.594;23.414;2023-05-15T04:34:12;94435.91;;;11.18;98.86
42705;BME280;28342;42.594;23.414;2023-05-15T04:36:37;94436.81;;;11.05;98.10
42705;BME280;28342;42.594;23.414;2023-05-15T04:39:03;94449.63;;;11.12;98.61
42705;BME280;28342;42.594;23.414;2023-05-15T04:41:28;94458.22;;;11.08;99.03
42705;BME280;28342;42.594;23.414;2023-05-15T04:43:54;94448.88;;;11.20;99.09
42705;BME280;28342;42.594;23.414;2023-05-15T04:46:20;94442.28;;;11.17;99.31
42705;BME280;28342;42.594;23.414;2023-05-15T04:48:45;94434.16;;;11.14;99.71
42705;BME280;28342;42.594;23.414;2023-05-15T04:51:11;94422.78;;;11.22;99.30
42705;BME280;28342;42.594;23.414;2023-05-15T04:53:36;94421.34;;;10.98;100.00
42705;BME280;28342;42.594;23.414;2023-05-15T04:56:02;94421.22;;;11.03;100.00
42705;BME280;28342;42.594;23.414;2023-05-15T04:58:27;94399.34;;;10.89;100.00
42705;BME280;28342;42.594;23.414;2023-05-15T05:00:52;94396.53;;;10.94;100.00
42705;BME280;28342;42.594;23.414;2023-05-15T05:03:18;94413.84;;;11.00;100.00
42705;BME280;28342;42.594;23.414;2023-05-15T05:05:43;94406.84;;;10.96;100.00
42705;BME280;28342;42.594;23.414;2023-05-15T05:08:09;94409.63;;;10.99;100.00
42705;BME280;28342;42.594;23.414;2023-05-15T05:10:34;94392.16;;;10.98;100.00
42705;BME280;28342;42.594;23.414;2023-05-15T05:13:00;94403.88;;;11.06;100.00
42705;BME280;28342;42.594;23.414;2023-05-15T05:15:25;94414.03;;;11.04;100.00
42705;BME280;28342;42.594;23.414;2023-05-15T05:17:51;94386.84;;;10.90;100.00
42705;BME280;28342;42.594;23.414;2023-05-15T05:20:17;94401.22;;;11.06;100.00
42705;BME280;28342;42.594;23.414;2023-05-15T05:22:42;94379.50;;;10.87;99.96
42705;BME280;28342;42.594;23.414;2023-05-15T05:25:08;94402.63;;;11.12;100.00
42705;BME280;28342;42.594;23.414;2023-05-15T05:27:34;94393.41;;;10.92;99.05
42705;BME280;28342;42.594;23.414;2023-05-15T05:29:59;94395.59;;;10.99;99.33
42705;BME280;28342;42.594;23.414;2023-05-15T05:32:25;94383.44;;;11.06;99.49
42705;BME280;28342;42.594;23.414;2023-05-15T05:34:50;94391.53;;;11.01;99.60
42705;BME280;28342;42.594;23.414;2023-05-15T05:37:15;94394.19;;;10.93;99.02
42705;BME280;28342;42.594;23.414;2023-05-15T05:39:41;94389.66;;;11.11;98.92
42705;BME280;28342;42.594;23.414;2023-05-15T05:42:06;94391.38;;;11.15;98.48
42705;BME280;28342;42.594;23.414;2023-05-15T05:44:32;94396.84;;;11.01;98.43
42705;BME280;28342;42.594;23.414;2023-05-15T05:46:58;94408.09;;;11.16;98.14
42705;BME280;28342;42.594;23.414;2023-05-15T05:49:24;94407.63;;;11.22;98.30
42705;BME280;28342;42.594;23.414;2023-05-15T05:51:49;94399.81;;;11.26;98.74
42705;BME280;28342;42.594;23.414;2023-05-15T05:54:15;94408.72;;;11.30;98.25
42705;BME280;28342;42.594;23.414;2023-05-15T05:56:42;94393.41;;;11.27;98.45
42705;BME280;28342;42.594;23.414;2023-05-15T05:59:08;94401.22;;;11.41;95.58
42705;BME280;28342;42.594;23.414;2023-05-15T06:01:34;94387.44;;;11.47;95.72
42705;BME280;28342;42.594;23.414;2023-05-15T06:04:00;94413.66;;;11.75;96.25
42705;BME280;28342;42.594;23.414;2023-05-15T06:06:25;94397.56;;;11.71;95.69
42705;BME280;28342;42.594;23.414;2023-05-15T06:08:51;94416.03;;;11.85;94.59
42705;BME280;28342;42.594;23.414;2023-05-15T06:11:16;94408.50;;;11.95;92.21
42705;BME280;28342;42.594;23.414;2023-05-15T06:13:41;94414.09;;;11.94;95.11
42705;BME280;28342;42.594;23.414;2023-05-15T06:16:07;94411.16;;;11.95;92.80
42705;BME280;28342;42.594;23.414;2023-05-15T06:18:33;94410.06;;;11.79;93.18
42705;BME280;28342;42.594;23.414;2023-05-15T06:20:58;94410.31;;;12.12;93.88
42705;BME280;28342;42.594;23.414;2023-05-15T06:23:27;94394.19;;;12.17;93.98
42705;BME280;28342;42.594;23.414;2023-05-15T06:25:53;94401.81;;;12.27;93.29
42705;BME280;28342;42.594;23.414;2023-05-15T06:28:18;94386.66;;;12.19;92.36
42705;BME280;28342;42.594;23.414;2023-05-15T06:30:43;94397.72;;;12.30;91.46
42705;BME280;28342;42.594;23.414;2023-05-15T06:33:10;94394.69;;;12.40;92.03
42705;BME280;28342;42.594;23.414;2023-05-15T06:35:35;94408.69;;;12.58;91.48
42705;BME280;28342;42.594;23.414;2023-05-15T06:38:01;94412.03;;;12.76;90.05
42705;BME280;28342;42.594;23.414;2023-05-15T06:40:26;94396.66;;;12.81;88.78
42705;BME280;28342;42.594;23.414;2023-05-15T06:42:52;94412.78;;;13.06;87.22
42705;BME280;28342;42.594;23.414;2023-05-15T06:45:17;94400.16;;;13.15;87.46
42705;BME280;28342;42.594;23.414;2023-05-15T06:47:42;94423.81;;;12.96;87.77
42705;BME280;28342;42.594;23.414;2023-05-15T06:50:08;94433.69;;;13.16;87.72
42705;BME280;28342;42.594;23.414;2023-05-15T06:52:34;94430.03;;;13.29;87.37
42705;BME280;28342;42.594;23.414;2023-05-15T06:54:59;94428.88;;;13.09;86.33
42705;BME280;28342;42.594;23.414;2023-05-15T06:57:25;94433.69;;;13.16;87.94
42705;BME280;28342;42.594;23.414;2023-05-15T06:59:51;94427.75;;;13.40;86.36
42705;BME280;28342;42.594;23.414;2023-05-15T07:02:16;94435.72;;;13.61;85.22
42705;BME280;28342;42.594;23.414;2023-05-15T07:04:41;94406.00;;;13.71;85.02
42705;BME280;28342;42.594;23.414;2023-05-15T07:07:07;94431.63;;;13.96;84.02
42705;BME280;28342;42.594;23.414;2023-05-15T07:09:32;94436.34;;;14.24;84.15
42705;BME280;28342;42.594;23.414;2023-05-15T07:11:59;94436.16;;;14.29;82.70
42705;BME280;28342;42.594;23.414;2023-05-15T07:14:25;94436.06;;;14.50;82.14
42705;BME280;28342;42.594;23.414;2023-05-15T07:16:50;94433.06;;;14.51;81.41
42705;BME280;28342;42.594;23.414;2023-05-15T07:19:19;94440.88;;;14.56;80.64
42705;BME280;28342;42.594;23.414;2023-05-15T07:21:45;94430.19;;;14.56;80.50
42705;BME280;28342;42.594;23.414;2023-05-15T07:24:10;94416.63;;;14.61;80.33
42705;BME280;28342;42.594;23.414;2023-05-15T07:26:36;94427.63;;;14.72;79.21
42705;BME280;28342;42.594;23.414;2023-05-15T07:29:01;94425.94;;;14.68;79.59
42705;BME280;28342;42.594;23.414;2023-05-15T07:31:28;94416.38;;;14.54;79.45
42705;BME280;28342;42.594;23.414;2023-05-15T07:33:55;94392.56;;;14.25;81.05
42705;BME280;28342;42.594;23.414;2023-05-15T07:36:20;94403.47;;;14.32;80.75
42705;BME280;28342;42.594;23.414;2023-05-15T07:38:46;94420.38;;;13.91;81.28
42705;BME280;28342;42.594;23.414;2023-05-15T07:41:11;94421.59;;;13.81;83.59
42705;BME280;28342;42.594;23.414;2023-05-15T07:43:36;94413.59;;;13.93;83.73
42705;BME280;28342;42.594;23.414;2023-05-15T07:46:02;94419.50;;;13.87;83.32
42705;BME280;28342;42.594;23.414;2023-05-15T07:48:27;94416.09;;;13.98;83.13
42705;BME280;28342;42.594;23.414;2023-05-15T07:50:53;94413.19;;;14.03;83.79
42705;BME280;28342;42.594;23.414;2023-05-15T07:53:19;94418.81;;;13.90;83.16
42705;BME280;28342;42.594;23.414;2023-05-15T07:55:45;94420.19;;;14.08;83.25
42705;BME280;28342;42.594;23.414;2023-05-15T07:58:10;94423.16;;;13.82;81.82
42705;BME280;28342;42.594;23.414;2023-05-15T08:00:36;94434.63;;;14.07;84.74
42705;BME280;28342;42.594;23.414;2023-05-15T08:03:02;94439.47;;;14.38;80.57
42705;BME280;28342;42.594;23.414;2023-05-15T08:05:28;94446.44;;;14.63;83.19
42705;BME280;28342;42.594;23.414;2023-05-15T08:07:54;94442.06;;;14.95;81.80
42705;BME280;28342;42.594;23.414;2023-05-15T08:10:20;94435.25;;;15.22;80.28
42705;BME280;28342;42.594;23.414;2023-05-15T08:12:45;94433.25;;;15.32;78.72
42705;BME280;28342;42.594;23.414;2023-05-15T08:15:12;94435.34;;;15.26;76.89
42705;BME280;28342;42.594;23.414;2023-05-15T08:17:37;94427.41;;;15.42;78.01
42705;BME280;28342;42.594;23.414;2023-05-15T08:20:03;94435.19;;;15.47;76.86
42705;BME280;28342;42.594;23.414;2023-05-15T08:22:29;94453.53;;;15.61;78.74
42705;BME280;28342;42.594;23.414;2023-05-15T08:24:55;94433.97;;;15.84;76.98
42705;BME280;28342;42.594;23.414;2023-05-15T08:27:20;94440.53;;;15.87;74.46
42705;BME280;28342;42.594;23.414;2023-05-15T08:29:46;94428.56;;;15.97;77.15
42705;BME280;28342;42.594;23.414;2023-05-15T08:32:11;94425.22;;;16.16;77.66
42705;BME280;28342;42.594;23.414;2023-05-15T08:34:37;94427.66;;;15.93;75.00
42705;BME280;28342;42.594;23.414;2023-05-15T08:37:03;94433.25;;;16.31;73.31
42705;BME280;28342;42.594;23.414;2023-05-15T08:39:28;94429.72;;;16.27;72.96
42705;BME280;28342;42.594;23.414;2023-05-15T08:42:14;94436.91;;;16.39;75.22
42705;BME280;28342;42.594;23.414;2023-05-15T08:44:43;94414.81;;;15.82;73.79
42705;BME280;28342;42.594;23.414;2023-05-15T08:47:09;94422.09;;;15.98;75.29
42705;BME280;28342;42.594;23.414;2023-05-15T08:49:57;94418.38;;;16.02;75.43
42705;BME280;28342;42.594;23.414;2023-05-15T08:52:29;94423.28;;;16.00;73.84
42705;BME280;28342;42.594;23.414;2023-05-15T08:54:54;94427.06;;;15.83;74.24
42705;BME280;28342;42.594;23.414;2023-05-15T08:57:20;94417.69;;;15.77;76.35
42705;BME280;28342;42.594;23.414;2023-05-15T08:59:47;94401.38;;;15.95;77.21
42705;BME280;28342;42.594;23.414;2023-05-15T09:02:14;94397.75;;;16.03;76.77
42705;BME280;28342;42.594;23.414;2023-05-15T09:04:40;94401.25;;;15.91;74.31
42705;BME280;28342;42.594;23.414;2023-05-15T09:07:05;94400.31;;;15.83;76.52
42705;BME280;28342;42.594;23.414;2023-05-15T09:09:32;94391.47;;;15.67;74.92
42705;BME280;28342;42.594;23.414;2023-05-15T09:11:59;94428.47;;;15.53;75.20
42705;BME280;28342;42.594;23.414;2023-05-15T09:14:25;94431.91;;;15.25;78.02
42705;BME280;28342;42.594;23.414;2023-05-15T09:16:51;94425.81;;;15.65;79.61
42705;BME280;28342;42.594;23.414;2023-05-15T09:19:18;94396.88;;;15.99;77.99
42705;BME280;28342;42.594;23.414;2023-05-15T09:21:45;94389.16;;;16.25;77.79
42705;BME280;28342;42.594;23.414;2023-05-15T09:24:22;94394.31;;;16.18;73.74
42705;BME280;28342;42.594;23.414;2023-05-15T09:27:01;94408.00;;;16.01;73.60
42705;BME280;28342;42.594;23.414;2023-05-15T09:29:29;94385.41;;;16.14;76.31
42705;BME280;28342;42.594;23.414;2023-05-15T09:31:55;94393.44;;;16.14;74.60
42705;BME280;28342;42.594;23.414;2023-05-15T09:34:30;94377.53;;;15.90;74.00
42705;BME280;28342;42.594;23.414;2023-05-15T09:36:57;94381.59;;;15.99;75.43
42705;BME280;28342;42.594;23.414;2023-05-15T09:39:22;94382.56;;;16.07;74.05
42705;BME280;28342;42.594;23.414;2023-05-15T09:41:48;94368.94;;;15.96;73.87
42705;BME280;28342;42.594;23.414;2023-05-15T09:44:24;94360.34;;;15.91;73.81
42705;BME280;28342;42.594;23.414;2023-05-15T09:46:50;94352.75;;;15.93;73.77
42705;BME280;28342;42.594;23.414;2023-05-15T09:49:17;94355.19;;;15.82;74.01
42705;BME280;28342;42.594;23.414;2023-05-15T09:51:43;94354.75;;;15.80;74.59
42705;BME280;28342;42.594;23.414;2023-05-15T09:54:18;94351.56;;;15.90;74.28
42705;BME280;28342;42.594;23.414;2023-05-15T09:56:45;94338.88;;;15.87;74.37
42705;BME280;28342;42.594;23.414;2023-05-15T09:59:16;94334.81;;;15.77;75.55
42705;BME280;28342;42.594;23.414;2023-05-15T10:01:43;94333.03;;;15.53;74.56
42705;BME280;28342;42.594;23.414;2023-05-15T10:04:11;94351.94;;;15.61;74.45
42705;BME280;28342;42.594;23.414;2023-05-15T10:06:39;94348.59;;;15.36;77.46
42705;BME280;28342;42.594;23.414;2023-05-15T10:09:05;94343.09;;;15.16;77.64
42705;BME280;28342;42.594;23.414;2023-05-15T10:11:35;94327.69;;;15.25;77.70
42705;BME280;28342;42.594;23.414;2023-05-15T10:14:04;94336.22;;;15.31;76.62
42705;BME280;28342;42.594;23.414;2023-05-15T10:16:32;94352.81;;;15.37;77.50
42705;BME280;28342;42.594;23.414;2023-05-15T10:19:00;94335.69;;;15.25;76.62
42705;BME280;28342;42.594;23.414;2023-05-15T10:21:27;94324.03;;;15.46;77.75
42705;BME280;28342;42.594;23.414;2023-05-15T10:23:58;94355.97;;;15.82;75.49
42705;BME280;28342;42.594;23.414;2023-05-15T10:26:38;94344.69;;;15.61;74.70
42705;BME280;28342;42.594;23.414;2023-05-15T10:29:09;94361.13;;;15.75;76.54
42705;BME280;28342;42.594;23.414;2023-05-15T10:31:35;94362.00;;;15.79;75.95
42705;BME280;28342;42.594;23.414;2023-05-15T10:34:04;94359.84;;;15.85;75.48
42705;BME280;28342;42.594;23.414;2023-05-15T10:36:31;94364.69;;;15.95;74.52
42705;BME280;28342;42.594;23.414;2023-05-15T10:39:01;94372.63;;;16.07;75.50
42705;BME280;28342;42.594;23.414;2023-05-15T10:41:35;94369.88;;;16.04;75.28
42705;BME280;28342;42.594;23.414;2023-05-15T10:44:01;94354.00;;;16.27;76.30
42705;BME280;28342;42.594;23.414;2023-05-15T10:46:29;94359.00;;;16.44;74.31
42705;BME280;28342;42.594;23.414;2023-05-15T10:48:55;94388.44;;;16.60;73.20
42705;BME280;28342;42.594;23.414;2023-05-15T10:51:25;94362.63;;;16.36;72.70
42705;BME280;28342;42.594;23.414;2023-05-15T10:53:59;94374.44;;;16.19;72.92
42705;BME280;28342;42.594;23.414;2023-05-15T10:56:37;94367.38;;;16.11;74.98
42705;BME280;28342;42.594;23.414;2023-05-15T10:59:08;94364.94;;;16.22;76.65
42705;BME280;28342;42.594;23.414;2023-05-15T11:01:36;94376.78;;;16.21;73.27
42705;BME280;28342;42.594;23.414;2023-05-15T11:04:15;94367.63;;;16.06;74.08
42705;BME280;28342;42.594;23.414;2023-05-15T11:06:43;94370.84;;;16.11;74.96
42705;BME280;28342;42.594;23.414;2023-05-15T11:14:22;94387.13;;;16.06;75.06
42705;BME280;28342;42.594;23.414;2023-05-15T11:19:32;94367.53;;;15.87;75.67
42705;BME280;28342;42.594;23.414;2023-05-15T11:22:15;94380.19;;;15.90;75.79
42705;BME280;28342;42.594;23.414;2023-05-15T11:25:01;94380.75;;;15.95;76.49
42705;BME280;28342;42.594;23.414;2023-05-15T11:27:36;94375.59;;;15.74;76.48
42705;BME280;28342;42.594;23.414;2023-05-15T11:30:32;94371.91;;;15.63;77.31
42705;BME280;28342;42.594;23.414;2023-05-15T11:35:24;94383.13;;;15.57;76.84
42705;BME280;28342;42.594;23.414;2023-05-15T11:37:56;94368.81;;;15.49;77.18
42705;BME280;28342;42.594;23.414;2023-05-15T11:40:26;94362.47;;;15.41;77.56
42705;BME280;28342;42.594;23.414;2023-05-15T11:45:35;94366.72;;;15.70;76.90
42705;BME280;28342;42.594;23.414;2023-05-15T11:48:03;94345.75;;;15.72;75.64
42705;BME280;28342;42.594;23.414;2023-05-15T11:50:31;94362.00;;;15.79;78.53
42705;BME280;28342;42.594;23.414;2023-05-15T11:53:00;94329.72;;;15.72;78.00
42705;BME280;28342;42.594;23.414;2023-05-15T11:55:26;94337.06;;;16.07;78.51
42705;BME280;28342;42.594;23.414;2023-05-15T11:57:53;94337.06;;;16.23;77.10
42705;BME280;28342;42.594;23.414;2023-05-15T12:00:20;94331.03;;;16.26;75.98
42705;BME280;28342;42.594;23.414;2023-05-15T12:02:45;94331.81;;;16.26;75.39
42705;BME280;28342;42.594;23.414;2023-05-15T12:05:11;94330.34;;;16.13;74.86
42705;BME280;28342;42.594;23.414;2023-05-15T12:07:38;94315.50;;;16.16;74.67
42705;BME280;28342;42.594;23.414;2023-05-15T12:10:05;94338.34;;;16.44;75.33
42705;BME280;28342;42.594;23.414;2023-05-15T12:12:31;94331.03;;;16.26;74.67
42705;BME280;28342;42.594;23.414;2023-05-15T12:14:57;94321.13;;;16.26;77.70
42705;BME280;28342;42.594;23.414;2023-05-15T12:17:23;94325.50;;;16.34;75.35
42705;BME280;28342;42.594;23.414;2023-05-15T12:19:50;94327.19;;;16.58;76.60
42705;BME280;28342;42.594;23.414;2023-05-15T12:22:16;94319.09;;;16.70;73.40
42705;BME280;28342;42.594;23.414;2023-05-15T12:24:43;94306.63;;;16.62;74.85
42705;BME280;28342;42.594;23.414;2023-05-15T12:27:10;94307.66;;;16.73;72.82
42705;BME280;28342;42.594;23.414;2023-05-15T12:29:35;94303.44;;;16.92;73.13
42705;BME280;28342;42.594;23.414;2023-05-15T12:32:01;94281.53;;;17.06;72.42
42705;BME280;28342;42.594;23.414;2023-05-15T12:34:27;94285.03;;;17.29;71.09
42705;BME280;28342;42.594;23.414;2023-05-15T12:36:53;94287.88;;;17.17;70.29
42705;BME280;28342;42.594;23.414;2023-05-15T12:39:19;94281.81;;;17.20;71.08
42705;BME280;28342;42.594;23.414;2023-05-15T12:41:44;94281.88;;;17.23;69.87
42705;BME280;28342;42.594;23.414;2023-05-15T12:44:16;94269.56;;;17.42;70.41
42705;BME280;28342;42.594;23.414;2023-05-15T12:46:42;94253.47;;;17.19;70.18
42705;BME280;28342;42.594;23.414;2023-05-15T12:49:07;94249.75;;;17.27;74.51
42705;BME280;28342;42.594;23.414;2023-05-15T12:51:41;94253.56;;;17.26;70.56
42705;BME280;28342;42.594;23.414;2023-05-15T12:54:15;94249.28;;;17.21;70.81
42705;BME280;28342;42.594;23.414;2023-05-15T12:56:41;94257.81;;;17.27;69.07
42705;BME280;28342;42.594;23.414;2023-05-15T12:59:07;94262.91;;;17.32;68.83
42705;BME280;28342;42.594;23.414;2023-05-15T13:01:32;94244.28;;;17.20;69.98
42705;BME280;28342;42.594;23.414;2023-05-15T13:03:59;94261.00;;;17.55;70.49
42705;BME280;28342;42.594;23.414;2023-05-15T13:06:25;94259.44;;;17.74;69.77
42705;BME280;28342;42.594;23.414;2023-05-15T13:08:53;94253.28;;;17.96;68.72
42705;BME280;28342;42.594;23.414;2023-05-15T13:11:18;94260.28;;;17.78;68.01
42705;BME280;28342;42.594;23.414;2023-05-15T13:13:48;94249.44;;;17.94;69.98